createdAt,value
2019-05-03T00:00:11.217Z,6.50
2019-05-03T00:02:57.568Z,6.60
2019-05-03T00:05:29.427Z,6.60
2019-05-03T00:08:02.145Z,6.70
2019-05-03T00:10:33.066Z,6.70
2019-05-03T00:13:02.858Z,6.70
2019-05-03T00:15:34.280Z,6.70
2019-05-03T00:18:05.923Z,6.70
2019-05-03T00:20:35.527Z,6.60
2019-05-03T00:23:05.925Z,6.60
2019-05-03T00:25:35.676Z,6.50
2019-05-03T00:28:05.548Z,6.50
2019-05-03T00:30:35.330Z,6.50
2019-05-03T00:33:05.086Z,6.40
2019-05-03T00:35:53.726Z,6.40
2019-05-03T00:38:35.673Z,6.30
2019-05-03T00:41:05.583Z,6.30
2019-05-03T00:43:35.323Z,6.20
2019-05-03T00:46:05.334Z,6.20
2019-05-03T00:48:35.030Z,6.20
2019-05-03T00:51:04.739Z,6.20
2019-05-03T00:53:34.487Z,6.20
2019-05-03T00:56:04.361Z,6.10
2019-05-03T00:58:35.707Z,6.10
2019-05-03T01:01:05.441Z,6.10
2019-05-03T01:03:35.160Z,6.10
2019-05-03T01:06:04.999Z,6.10
2019-05-03T01:08:34.643Z,6.10
2019-05-03T01:11:04.411Z,6.10
2019-05-03T01:13:34.166Z,6.10
2019-05-03T01:16:08.362Z,6.10
2019-05-03T01:18:38.139Z,6.20
2019-05-03T01:21:07.909Z,6.20
2019-05-03T01:23:37.755Z,6.30
2019-05-03T01:26:07.498Z,6.30
2019-05-03T01:28:37.196Z,6.30
2019-05-03T01:31:07.064Z,6.30
2019-05-03T01:33:36.838Z,6.40
2019-05-03T01:36:06.647Z,6.30
2019-05-03T01:38:36.389Z,6.30
2019-05-03T01:41:06.347Z,6.30
2019-05-03T01:43:36.133Z,6.30
2019-05-03T01:46:05.877Z,6.30
2019-05-03T01:48:41.619Z,6.30
2019-05-03T01:51:29.455Z,6.30
2019-05-03T01:53:59.277Z,6.30
2019-05-03T01:56:28.962Z,6.30
2019-05-03T01:58:58.669Z,6.30
2019-05-03T02:01:32.685Z,6.30
2019-05-03T02:04:04.043Z,6.30
2019-05-03T02:06:33.815Z,6.30
2019-05-03T02:09:05.100Z,6.30
2019-05-03T02:11:35.892Z,6.30
2019-05-03T02:14:06.929Z,6.30
2019-05-03T02:16:38.249Z,6.30
2019-05-03T02:19:08.035Z,6.30
2019-05-03T02:21:37.718Z,6.30
2019-05-03T02:24:07.615Z,6.30
2019-05-03T02:26:37.381Z,6.30
2019-05-03T02:29:07.202Z,6.30
2019-05-03T02:31:36.917Z,6.30
2019-05-03T02:34:06.716Z,6.30
2019-05-03T02:36:36.473Z,6.30
2019-05-03T02:39:10.166Z,6.30
2019-05-03T02:41:39.937Z,6.30
2019-05-03T02:44:09.803Z,6.30
2019-05-03T02:46:45.381Z,6.30
2019-05-03T02:49:16.793Z,6.30
2019-05-03T02:51:46.556Z,6.30
2019-05-03T02:54:16.303Z,6.30
2019-05-03T02:56:46.255Z,6.20
2019-05-03T02:59:16.184Z,6.20
2019-05-03T03:01:46.725Z,6.20
2019-05-03T03:04:17.356Z,6.20
2019-05-03T03:06:48.618Z,6.20
2019-05-03T03:09:21.223Z,6.30
2019-05-03T03:11:51.588Z,6.20
2019-05-03T03:14:25.533Z,6.10
2019-05-03T03:16:57.663Z,6.00
2019-05-03T03:19:29.951Z,6.00
2019-05-03T03:22:05.857Z,5.90
2019-05-03T03:24:39.432Z,5.90
2019-05-03T03:27:12.036Z,5.90
2019-05-03T03:29:45.878Z,5.90
2019-05-03T03:32:21.249Z,5.90
2019-05-03T03:35:03.244Z,5.90
2019-05-03T03:37:31.181Z,5.90
2019-05-03T03:40:01.062Z,5.90
2019-05-03T03:42:32.426Z,5.90
2019-05-03T03:45:06.140Z,5.90
2019-05-03T03:47:38.146Z,5.90
2019-05-03T03:50:09.208Z,5.90
2019-05-03T03:52:40.415Z,5.90
2019-05-03T03:55:10.589Z,5.90
2019-05-03T03:57:40.942Z,5.80
2019-05-03T04:00:11.727Z,5.80
2019-05-03T04:02:41.563Z,5.80
2019-05-03T04:05:11.327Z,5.80
2019-05-03T04:07:41.199Z,5.70
2019-05-03T04:10:11.377Z,5.70
2019-05-03T04:12:45.286Z,5.60
2019-05-03T04:15:19.902Z,5.60
2019-05-03T04:18:01.086Z,5.60
2019-05-03T04:20:32.745Z,5.60
2019-05-03T04:23:05.125Z,5.60
2019-05-03T04:25:56.308Z,5.70
2019-05-03T04:28:25.545Z,5.70
2019-05-03T04:30:55.559Z,5.80
2019-05-03T04:33:28.120Z,5.80
2019-05-03T04:35:57.859Z,5.80
2019-05-03T04:38:27.544Z,5.80
2019-05-03T04:40:57.301Z,5.80
2019-05-03T04:43:27.038Z,5.70
2019-05-03T04:46:07.440Z,5.70
2019-05-03T04:48:37.141Z,5.70
2019-05-03T04:51:07.048Z,5.70
2019-05-03T04:53:38.331Z,5.70
2019-05-03T04:56:07.944Z,5.70
2019-05-03T04:58:37.731Z,5.60
2019-05-03T05:01:07.486Z,5.60
2019-05-03T05:03:37.382Z,5.60
2019-05-03T05:06:07.101Z,5.60
2019-05-03T05:08:36.779Z,5.60
2019-05-03T05:11:10.234Z,5.60
2019-05-03T05:13:37.765Z,5.50
2019-05-03T05:16:07.463Z,5.50
2019-05-03T05:18:38.813Z,5.50
2019-05-03T05:21:14.843Z,5.50
2019-05-03T05:23:57.594Z,5.50
2019-05-03T05:26:35.410Z,5.50
2019-05-03T05:29:09.625Z,5.50
2019-05-03T05:31:39.239Z,5.50
2019-05-03T05:34:09.055Z,5.50
2019-05-03T05:36:39.762Z,5.60
2019-05-03T05:39:09.427Z,5.60
2019-05-03T05:41:39.193Z,5.70
2019-05-03T05:44:09.008Z,5.70
2019-05-03T05:46:40.441Z,5.70
2019-05-03T05:49:11.733Z,5.60
2019-05-03T05:51:44.503Z,5.60
2019-05-03T05:54:14.468Z,5.50
2019-05-03T05:56:48.567Z,5.50
2019-05-03T05:59:26.097Z,5.50
2019-05-03T06:01:57.486Z,5.40
2019-05-03T06:04:28.222Z,5.40
2019-05-03T06:07:02.287Z,5.50
2019-05-03T06:09:36.823Z,5.50
2019-05-03T06:12:20.437Z,5.60
2019-05-03T06:14:51.910Z,5.60
2019-05-03T06:17:35.156Z,5.60
2019-05-03T06:20:20.243Z,5.60
2019-05-03T06:22:57.785Z,5.60
2019-05-03T06:25:29.106Z,5.50
2019-05-03T06:27:59.806Z,5.50
2019-05-03T06:30:31.626Z,5.50
2019-05-03T06:35:50.053Z,5.60
2019-05-03T06:38:19.825Z,5.70
2019-05-03T06:40:49.499Z,5.80
2019-05-03T06:43:19.272Z,5.90
2019-05-03T06:45:50.511Z,6.00
2019-05-03T06:48:22.315Z,6.10
2019-05-03T06:50:51.827Z,6.10
2019-05-03T06:53:21.654Z,6.20
2019-05-03T06:55:51.353Z,6.20
2019-05-03T06:58:32.862Z,6.30
2019-05-03T07:01:00.074Z,6.20
2019-05-03T07:03:35.423Z,6.00
2019-05-03T07:06:18.024Z,5.80
2019-05-03T07:11:46.414Z,5.60
2019-05-03T07:14:16.440Z,5.20
2019-05-03T07:16:46.224Z,4.90
2019-05-03T07:19:16.054Z,4.70
2019-05-03T07:21:50.495Z,4.50
2019-05-03T07:24:20.365Z,4.50
2019-05-03T07:26:50.885Z,4.60
2019-05-03T07:29:20.742Z,4.60
2019-05-03T07:31:50.653Z,4.50
2019-05-03T07:34:20.419Z,4.60
2019-05-03T07:37:09.437Z,4.60
2019-05-03T07:39:39.279Z,4.70
2019-05-03T07:42:09.027Z,4.90
2019-05-03T07:44:38.832Z,5.10
2019-05-03T07:47:08.623Z,5.20
2019-05-03T07:49:39.938Z,5.40
2019-05-03T07:52:11.801Z,5.50
2019-05-03T07:54:41.324Z,5.60
2019-05-03T07:57:31.254Z,5.60
2019-05-03T08:00:01.104Z,5.50
2019-05-03T08:02:32.598Z,5.40
2019-05-03T08:05:02.429Z,5.30
2019-05-03T08:07:35.414Z,5.10
2019-05-03T08:10:07.153Z,5.00
2019-05-03T08:12:36.983Z,5.00
2019-05-03T08:15:07.363Z,4.90
2019-05-03T08:17:37.295Z,5.00
2019-05-03T08:20:08.220Z,5.10
2019-05-03T08:22:38.118Z,5.30
2019-05-03T08:25:08.097Z,5.40
2019-05-03T08:27:38.011Z,5.50
2019-05-03T08:30:09.670Z,5.60
2019-05-03T08:32:41.003Z,5.60
2019-05-03T08:35:15.967Z,5.60
2019-05-03T08:37:47.318Z,5.60
2019-05-03T08:40:17.787Z,5.60
2019-05-03T08:42:47.549Z,5.70
2019-05-03T08:45:17.480Z,5.80
2019-05-03T08:47:47.162Z,6.00
2019-05-03T08:50:21.415Z,6.20
2019-05-03T08:52:52.806Z,6.20
2019-05-03T08:55:24.839Z,6.20
2019-05-03T08:57:55.087Z,6.00
2019-05-03T09:00:26.742Z,6.00
2019-05-03T09:02:56.576Z,6.10
2019-05-03T09:05:26.501Z,6.10
2019-05-03T09:07:56.616Z,6.20
2019-05-03T09:10:31.363Z,6.30
2019-05-03T09:13:08.495Z,6.50
2019-05-03T09:15:40.179Z,6.50
2019-05-03T09:18:09.940Z,6.80
2019-05-03T09:20:39.699Z,6.90
2019-05-03T09:23:09.920Z,7.20
2019-05-03T09:25:39.847Z,7.20
2019-05-03T09:28:09.633Z,7.10
2019-05-03T09:30:39.564Z,7.20
2019-05-03T09:33:09.396Z,7.20
2019-05-03T09:35:40.334Z,7.30
2019-05-03T09:38:10.263Z,7.40
2019-05-03T09:40:39.988Z,7.60
2019-05-03T09:43:09.896Z,7.70
2019-05-03T09:45:39.818Z,7.80
2019-05-03T09:48:09.554Z,7.80
2019-05-03T09:50:39.513Z,7.90
2019-05-03T09:53:09.254Z,8.00
2019-05-03T09:55:40.934Z,7.90
2019-05-03T09:58:10.813Z,7.80
2019-05-03T10:00:40.703Z,7.60
2019-05-03T10:03:10.621Z,7.50
2019-05-03T10:05:40.749Z,7.50
2019-05-03T10:08:10.567Z,7.60
2019-05-03T10:10:44.912Z,7.70
2019-05-03T10:15:42.073Z,7.80
2019-05-03T10:18:13.523Z,7.70
2019-05-03T10:20:44.674Z,7.80
2019-05-03T10:23:16.145Z,8.00
2019-05-03T10:25:45.909Z,7.60
2019-05-03T10:28:15.574Z,7.10
2019-05-03T10:30:45.498Z,6.70
2019-05-03T10:33:22.985Z,6.60
2019-05-03T10:35:54.518Z,6.60
2019-05-03T10:38:24.672Z,6.80
2019-05-03T10:40:55.558Z,7.00
2019-05-03T10:43:25.354Z,7.20
2019-05-03T10:45:55.801Z,7.50
2019-05-03T10:48:25.617Z,7.70
2019-05-03T10:50:56.381Z,7.70
2019-05-03T10:53:30.904Z,7.80
2019-05-03T10:56:22.919Z,7.70
2019-05-03T10:59:03.637Z,7.80
2019-05-03T11:01:40.983Z,7.70
2019-05-03T11:04:10.861Z,7.40
2019-05-03T11:06:40.616Z,7.30
2019-05-03T11:09:10.379Z,7.40
2019-05-03T11:11:40.066Z,7.40
2019-05-03T11:14:09.828Z,7.50
2019-05-03T11:16:39.599Z,7.60
2019-05-03T11:19:09.343Z,7.70
2019-05-03T11:21:39.055Z,7.80
2019-05-03T11:24:09.226Z,7.80
2019-05-03T11:26:40.395Z,7.80
2019-05-03T11:29:10.132Z,8.00
2019-05-03T11:31:58.224Z,7.90
2019-05-03T11:34:41.870Z,8.00
2019-05-03T11:37:31.298Z,8.00
2019-05-03T11:40:01.222Z,7.90
2019-05-03T11:42:30.988Z,8.00
2019-05-03T11:45:00.772Z,8.10
2019-05-03T11:47:30.512Z,8.30
2019-05-03T11:50:00.160Z,8.30
2019-05-03T11:52:29.838Z,8.40
2019-05-03T11:54:59.583Z,8.40
2019-05-03T11:57:29.354Z,8.40
2019-05-03T11:59:59.118Z,8.50
2019-05-03T12:02:30.648Z,8.40
2019-05-03T12:05:02.107Z,8.50
2019-05-03T12:07:38.862Z,8.60
2019-05-03T12:10:13.792Z,8.80
2019-05-03T12:12:41.430Z,8.90
2019-05-03T12:15:12.189Z,8.90
2019-05-03T12:17:51.853Z,8.90
2019-05-03T12:20:19.209Z,9.00
2019-05-03T12:22:49.552Z,8.90
2019-05-03T12:25:20.419Z,8.80
2019-05-03T12:27:50.784Z,8.80
2019-05-03T12:30:20.562Z,8.80
2019-05-03T12:32:54.678Z,8.70
2019-05-03T12:35:24.715Z,8.70
2019-05-03T12:37:55.589Z,8.70
2019-05-03T12:40:26.500Z,8.60
2019-05-03T12:42:56.204Z,8.40
2019-05-03T12:45:25.959Z,8.40
2019-05-03T12:47:56.037Z,8.40
2019-05-03T12:50:27.000Z,8.50
2019-05-03T12:52:57.184Z,8.80
2019-05-03T12:55:26.855Z,8.70
2019-05-03T12:57:56.569Z,8.70
2019-05-03T13:00:37.152Z,8.80
2019-05-03T13:03:15.234Z,9.00
2019-05-03T13:05:45.150Z,9.30
2019-05-03T13:08:35.197Z,9.20
2019-05-03T13:11:06.180Z,9.10
2019-05-03T13:13:36.247Z,8.80
2019-05-03T13:16:07.486Z,7.80
2019-05-03T13:18:37.200Z,7.10
2019-05-03T13:21:07.089Z,6.40
2019-05-03T13:23:38.393Z,6.20
2019-05-03T13:26:08.144Z,6.10
2019-05-03T13:28:37.962Z,6.10
2019-05-03T13:31:07.849Z,6.30
2019-05-03T13:33:37.579Z,6.50
2019-05-03T13:36:08.432Z,6.70
2019-05-03T13:38:38.141Z,7.00
2019-05-03T13:41:07.879Z,7.10
2019-05-03T13:43:37.777Z,7.20
2019-05-03T13:46:07.529Z,7.40
2019-05-03T13:48:45.526Z,7.70
2019-05-03T13:51:08.646Z,8.10
2019-05-03T13:53:38.374Z,8.00
2019-05-03T13:56:08.123Z,7.90
2019-05-03T13:58:37.830Z,7.90
2019-05-03T14:01:07.606Z,8.00
2019-05-03T14:03:37.302Z,8.20
2019-05-03T14:06:09.004Z,8.30
2019-05-03T14:08:38.585Z,8.40
2019-05-03T14:11:08.458Z,8.50
2019-05-03T14:13:38.204Z,8.60
2019-05-03T14:16:08.079Z,8.50
2019-05-03T14:18:41.005Z,8.50
2019-05-03T14:21:10.962Z,8.40
2019-05-03T14:23:58.778Z,8.30
2019-05-03T14:26:28.900Z,8.40
2019-05-03T14:28:58.656Z,8.50
2019-05-03T14:31:28.652Z,8.70
2019-05-03T14:33:58.482Z,8.50
2019-05-03T14:36:28.313Z,7.80
2019-05-03T14:38:58.109Z,7.50
2019-05-03T14:41:27.807Z,7.00
2019-05-03T14:43:57.475Z,6.70
2019-05-03T14:46:32.752Z,6.60
2019-05-03T14:48:58.640Z,6.70
2019-05-03T14:51:28.324Z,6.80
2019-05-03T14:53:58.914Z,7.00
2019-05-03T14:56:30.271Z,7.30
2019-05-03T14:59:18.207Z,7.60
2019-05-03T15:01:55.765Z,7.90
2019-05-03T15:04:26.758Z,8.20
2019-05-03T15:06:57.894Z,8.40
2019-05-03T15:09:28.177Z,8.50
2019-05-03T15:11:57.917Z,8.70
2019-05-03T15:14:27.632Z,8.80
2019-05-03T15:16:57.420Z,8.80
2019-05-03T15:19:27.096Z,9.00
2019-05-03T15:21:57.055Z,9.00
2019-05-03T15:24:26.737Z,8.90
2019-05-03T15:27:00.567Z,8.90
2019-05-03T15:29:30.263Z,8.90
2019-05-03T15:32:00.215Z,8.90
2019-05-03T15:34:30.936Z,9.00
2019-05-03T15:37:00.597Z,9.30
2019-05-03T15:39:30.446Z,9.30
2019-05-03T15:42:00.186Z,9.20
2019-05-03T15:44:48.035Z,8.90
2019-05-03T15:47:19.351Z,8.90
2019-05-03T15:49:49.522Z,9.10
2019-05-03T15:52:19.390Z,9.20
2019-05-03T15:54:49.285Z,9.10
2019-05-03T15:57:19.024Z,9.10
2019-05-03T15:59:48.944Z,9.20
2019-05-03T16:02:19.838Z,9.20
2019-05-03T16:04:49.615Z,9.00
2019-05-03T16:07:19.421Z,9.00
2019-05-03T16:09:49.160Z,9.00
2019-05-03T16:12:18.868Z,9.00
2019-05-03T16:14:48.554Z,9.10
2019-05-03T16:17:18.270Z,9.20
2019-05-03T16:19:47.947Z,9.10
2019-05-03T16:22:17.727Z,9.10
2019-05-03T16:24:47.495Z,9.30
2019-05-03T16:27:18.845Z,9.40
2019-05-03T16:29:48.716Z,9.20
2019-05-03T16:32:18.616Z,8.70
2019-05-03T16:34:48.605Z,8.40
2019-05-03T16:37:18.607Z,8.30
2019-05-03T16:39:48.402Z,8.20
2019-05-03T16:42:18.154Z,8.00
2019-05-03T16:44:47.905Z,7.60
2019-05-03T16:47:17.592Z,7.30
2019-05-03T16:49:47.352Z,7.10
2019-05-03T16:52:17.423Z,7.00
2019-05-03T16:54:48.449Z,6.90
2019-05-03T16:57:18.321Z,6.90
2019-05-03T16:59:48.104Z,6.80
2019-05-03T17:02:17.897Z,6.60
2019-05-03T17:04:49.262Z,6.40
2019-05-03T17:07:24.716Z,6.30
2019-05-03T17:09:59.191Z,6.20
2019-05-03T17:12:30.538Z,6.10
2019-05-03T17:15:00.256Z,6.20
2019-05-03T17:17:29.997Z,6.20
2019-05-03T17:19:59.780Z,6.30
2019-05-03T17:22:29.545Z,6.40
2019-05-03T17:24:59.247Z,6.40
2019-05-03T17:27:30.130Z,6.40
2019-05-03T17:29:59.880Z,6.40
2019-05-03T17:32:29.634Z,6.50
2019-05-03T17:34:59.312Z,6.50
2019-05-03T17:37:29.088Z,6.50
2019-05-03T17:40:00.383Z,6.50
2019-05-03T17:42:48.314Z,6.60
2019-05-03T17:45:20.030Z,6.60
2019-05-03T17:47:50.961Z,6.80
2019-05-03T17:50:21.701Z,7.00
2019-05-03T17:53:09.001Z,7.10
2019-05-03T17:55:55.328Z,7.00
2019-05-03T17:58:32.114Z,6.60
2019-05-03T18:01:12.605Z,6.40
2019-05-03T18:03:44.901Z,6.40
2019-05-03T18:06:22.437Z,6.30
2019-05-03T18:08:55.123Z,5.90
2019-05-03T18:11:34.568Z,5.60
2019-05-03T18:14:05.530Z,5.60
2019-05-03T18:16:35.362Z,5.60
2019-05-03T18:19:05.286Z,5.50
2019-05-03T18:21:35.271Z,5.40
2019-05-03T18:24:05.231Z,5.40
2019-05-03T18:26:35.496Z,5.40
2019-05-03T18:29:05.889Z,5.40
2019-05-03T18:31:35.754Z,5.40
2019-05-03T18:34:18.403Z,5.30
2019-05-03T18:36:36.975Z,5.30
2019-05-03T18:39:08.416Z,5.30
2019-05-03T18:41:39.704Z,5.30
2019-05-03T18:44:23.513Z,5.30
2019-05-03T18:47:00.596Z,5.20
2019-05-03T18:49:30.567Z,5.30
2019-05-03T18:52:00.474Z,5.20
2019-05-03T18:54:30.189Z,5.20
2019-05-03T18:57:00.078Z,5.20
2019-05-03T18:59:30.006Z,5.20
2019-05-03T19:01:59.911Z,5.20
2019-05-03T19:04:37.889Z,5.20
2019-05-03T19:07:09.673Z,5.20
2019-05-03T19:09:50.027Z,5.20
2019-05-03T19:12:26.403Z,5.20
2019-05-03T19:14:58.189Z,5.10
2019-05-03T19:17:46.175Z,5.10
2019-05-03T19:20:17.751Z,5.20
2019-05-03T19:22:47.653Z,5.20
2019-05-03T19:25:17.518Z,5.30
2019-05-03T19:27:47.428Z,5.30
2019-05-03T19:30:17.559Z,5.30
2019-05-03T19:32:47.483Z,5.30
2019-05-03T19:35:17.282Z,5.30
2019-05-03T19:37:48.422Z,5.30
2019-05-03T19:40:18.243Z,5.30
2019-05-03T19:42:47.961Z,5.30
2019-05-03T19:45:18.004Z,5.30
2019-05-03T19:47:47.790Z,5.40
2019-05-03T19:50:17.712Z,5.30
2019-05-03T19:52:57.722Z,5.00
2019-05-03T19:55:27.601Z,4.90
2019-05-03T19:57:57.531Z,4.60
2019-05-03T20:00:34.743Z,4.50
2019-05-03T20:03:08.147Z,4.30
2019-05-03T20:05:45.420Z,4.30
2019-05-03T20:08:19.545Z,4.30
2019-05-03T20:10:49.361Z,4.40
2019-05-03T20:13:31.763Z,4.40
2019-05-03T20:15:51.094Z,4.40
2019-05-03T20:18:21.020Z,4.50
2019-05-03T20:20:50.942Z,4.50
2019-05-03T20:23:20.849Z,4.40
2019-05-03T20:25:50.757Z,4.40
2019-05-03T20:28:20.654Z,4.40
2019-05-03T20:30:50.437Z,4.30
2019-05-03T20:33:21.915Z,4.20
2019-05-03T20:35:53.809Z,4.20
2019-05-03T20:38:24.588Z,4.20
2019-05-03T20:40:57.412Z,4.20
2019-05-03T20:43:42.132Z,4.10
2019-05-03T20:46:16.407Z,4.10
2019-05-03T20:48:48.036Z,4.10
2019-05-03T20:51:21.183Z,4.00
2019-05-03T20:54:04.825Z,4.10
2019-05-03T20:56:34.517Z,4.00
2019-05-03T20:59:05.448Z,4.00
2019-05-03T21:01:35.713Z,3.90
2019-05-03T21:04:05.462Z,3.90
2019-05-03T21:06:35.986Z,3.90
2019-05-03T21:09:07.111Z,3.90
2019-05-03T21:11:38.470Z,4.00
2019-05-03T21:14:09.261Z,4.00
2019-05-03T21:16:45.111Z,4.00
2019-05-03T21:19:24.642Z,4.10
2019-05-03T21:21:58.546Z,4.10
2019-05-03T21:24:32.614Z,4.10
2019-05-03T21:27:04.965Z,4.10
2019-05-03T21:29:35.645Z,4.10
2019-05-03T21:32:05.827Z,4.10
2019-05-03T21:34:35.504Z,4.10
2019-05-03T21:37:05.276Z,4.10
2019-05-03T21:39:34.916Z,4.10
2019-05-03T21:42:04.769Z,4.20
2019-05-03T21:44:35.394Z,4.20
2019-05-03T21:47:06.740Z,4.30
2019-05-03T21:49:38.095Z,4.30
2019-05-03T21:52:07.919Z,4.40
2019-05-03T21:54:37.617Z,4.40
2019-05-03T21:57:07.456Z,4.40
2019-05-03T21:59:37.232Z,4.40
2019-05-03T22:02:07.112Z,4.40
2019-05-03T22:04:36.897Z,4.40
2019-05-03T22:07:06.740Z,4.40
2019-05-03T22:09:36.583Z,4.50
2019-05-03T22:12:06.259Z,4.50
2019-05-03T22:14:45.468Z,4.50
2019-05-03T22:17:34.538Z,4.50
2019-05-03T22:20:29.769Z,4.50
2019-05-03T22:23:01.975Z,4.50
2019-05-03T22:25:34.813Z,4.60
2019-05-03T22:28:07.169Z,4.60
2019-05-03T22:30:36.500Z,4.60
2019-05-03T22:33:06.257Z,4.60
2019-05-03T22:35:35.960Z,4.60
2019-05-03T22:38:06.535Z,4.60
2019-05-03T22:40:36.579Z,4.60
2019-05-03T22:43:06.376Z,4.50
2019-05-03T22:45:37.376Z,4.50
2019-05-03T22:48:07.271Z,4.50
2019-05-03T22:50:38.106Z,4.40
2019-05-03T22:53:07.955Z,4.30
2019-05-03T22:55:37.783Z,4.30
2019-05-03T22:58:07.460Z,4.30
2019-05-03T23:00:37.233Z,4.30
2019-05-03T23:03:07.173Z,4.20
2019-05-03T23:05:37.259Z,4.20
2019-05-03T23:08:07.394Z,4.20
2019-05-03T23:10:37.245Z,4.20
2019-05-03T23:13:06.862Z,4.20
2019-05-03T23:15:36.742Z,4.20
2019-05-03T23:18:06.506Z,4.20
2019-05-03T23:20:38.189Z,4.20
2019-05-03T23:23:09.552Z,4.20
2019-05-03T23:25:39.316Z,4.10
2019-05-03T23:28:09.090Z,4.10
2019-05-03T23:30:38.968Z,4.10
2019-05-03T23:33:08.664Z,4.10
2019-05-03T23:35:39.437Z,4.10
2019-05-03T23:38:09.146Z,4.20
2019-05-03T23:40:39.064Z,4.20
2019-05-03T23:43:08.964Z,4.20
2019-05-03T23:45:38.725Z,4.30
2019-05-03T23:48:08.483Z,4.30
2019-05-03T23:50:38.265Z,4.30
2019-05-03T23:53:08.053Z,4.30
2019-05-03T23:55:39.832Z,4.30
2019-05-03T23:58:09.571Z,4.40
